Time;durP1;ratioP1;P1;durP2;ratioP2;P2;SDS_P1;SDS_P2;PMS_P1;PMS_P2;Temp;Humidity;BMP_temperature;BMP_pressure;BME280_temperature;BME280_humidity;BME280_pressure;Samples;Min_cycle;Max_cycle;Signal;HPM_P1;HPM_P2
2022/11/27 00:02:45;;;;;;;15.57;6.18;;;10.10;61.90;;;;;;6083902;29;20377;-82
2022/11/27 00:05:54;;;;;;;20.58;6.25;;;10.00;61.90;;;;;;6081382;29;20063;-80
2022/11/27 00:08:57;;;;;;;13.35;6.22;;;10.00;62.10;;;;;;6090161;29;20106;-80
2022/11/27 00:11:58;;;;;;;14.75;6.28;;;9.90;62.20;;;;;;6097584;29;20131;-80
2022/11/27 00:14:59;;;;;;;14.05;6.07;;;9.90;62.50;;;;;;6095895;29;20111;-80
2022/11/27 00:18:00;;;;;;;18.42;6.68;;;9.80;62.70;;;;;;6098573;29;20036;-80
2022/11/27 00:21:06;;;;;;;14.95;5.75;;;9.70;62.80;;;;;;6082626;29;20500;-80
2022/11/27 00:24:08;;;;;;;19.77;6.28;;;9.80;63.00;;;;;;6100008;29;20047;-80
2022/11/27 00:27:11;;;;;;;12.40;5.97;;;9.80;63.00;;;;;;6089842;29;20492;-81
2022/11/27 00:30:12;;;;;;;15.10;6.30;;;9.80;62.90;;;;;;6096478;29;20047;-80
2022/11/27 00:33:13;;;;;;;13.88;5.45;;;9.80;62.90;;;;;;6085163;29;20058;-80
2022/11/27 00:36:15;;;;;;;14.18;5.45;;;9.70;62.90;;;;;;6088216;29;20040;-80
2022/11/27 00:39:15;;;;;;;10.48;5.00;;;9.70;62.80;;;;;;6094807;29;20036;-80
2022/11/27 00:42:16;;;;;;;21.83;5.82;;;9.60;62.90;;;;;;6102410;29;20075;-80
2022/11/27 00:45:17;;;;;;;12.52;5.82;;;9.60;63.10;;;;;;6089379;29;20051;-81
2022/11/27 00:48:18;;;;;;;11.00;5.05;;;9.50;63.20;;;;;;6082831;29;20052;-79
2022/11/27 00:51:21;;;;;;;9.60;4.68;;;9.50;63.20;;;;;;6092063;29;20108;-79
2022/11/27 00:54:22;;;;;;;6.55;4.25;;;9.40;63.30;;;;;;6088763;29;20037;-81
2022/11/27 00:57:23;;;;;;;11.93;4.30;;;9.40;63.40;;;;;;6080700;29;20076;-81
2022/11/27 01:00:24;;;;;;;10.52;5.82;;;9.40;63.50;;;;;;6089161;29;20041;-80
2022/11/27 01:03:26;;;;;;;12.18;5.63;;;9.40;63.60;;;;;;6085080;29;20059;-80
2022/11/27 01:06:28;;;;;;;21.70;7.70;;;9.40;63.60;;;;;;6083910;29;20036;-79
2022/11/27 01:09:29;;;;;;;14.70;6.32;;;9.50;63.70;;;;;;6080775;29;20048;-79
2022/11/27 01:12:30;;;;;;;12.82;6.03;;;9.40;63.60;;;;;;6092532;29;20551;-79
2022/11/27 01:15:31;;;;;;;13.70;5.97;;;9.50;63.70;;;;;;6095859;29;20127;-82
2022/11/27 01:18:34;;;;;;;16.98;8.05;;;9.50;63.70;;;;;;6087453;29;20557;-79
2022/11/27 01:21:35;;;;;;;13.90;6.07;;;9.50;63.70;;;;;;6095984;29;20123;-79
2022/11/27 01:24:36;;;;;;;16.52;5.95;;;9.40;63.60;;;;;;6096410;29;20058;-80
2022/11/27 01:27:37;;;;;;;17.52;6.05;;;9.40;63.80;;;;;;6087335;29;20040;-79
2022/11/27 01:30:39;;;;;;;12.93;5.60;;;9.40;63.80;;;;;;6093741;29;20063;-78
2022/11/27 01:33:42;;;;;;;15.30;5.20;;;9.40;63.80;;;;;;6089560;29;20072;-79
2022/11/27 01:36:43;;;;;;;14.20;5.97;;;9.40;63.90;;;;;;6097640;29;20808;-80
2022/11/27 01:39:44;;;;;;;12.65;5.60;;;9.40;63.90;;;;;;6086681;29;20048;-80
2022/11/27 01:42:45;;;;;;;11.98;5.28;;;9.40;63.80;;;;;;6103556;29;20035;-80
2022/11/27 01:45:46;;;;;;;16.15;5.38;;;9.40;63.80;;;;;;6100485;29;20059;-80
2022/11/27 01:48:49;;;;;;;15.18;5.75;;;9.40;63.90;;;;;;6094392;29;20085;-80
2022/11/27 01:52:11;;;;;;;15.80;5.90;;;9.40;63.90;;;;;;6097276;29;20053;-80
2022/11/27 01:55:30;;;;;;;10.07;5.13;;;9.40;63.90;;;;;;6102408;29;20124;-80
2022/11/27 01:58:33;;;;;;;14.07;5.35;;;9.40;63.80;;;;;;6091996;29;20462;-79
2022/11/27 02:01:34;;;;;;;10.38;4.55;;;9.40;63.60;;;;;;6085746;29;20045;-80
2022/11/27 02:04:35;;;;;;;8.77;5.38;;;9.40;63.50;;;;;;6093851;29;20334;-79
2022/11/27 02:07:36;;;;;;;11.80;5.55;;;9.30;63.50;;;;;;6092896;29;20052;-79
2022/11/27 02:10:49;;;;;;;9.90;5.07;;;9.30;63.60;;;;;;6090317;29;20047;-80
2022/11/27 02:14:01;;;;;;;13.57;6.45;;;9.20;63.70;;;;;;6085484;29;20043;-79
2022/11/27 02:17:12;;;;;;;12.90;5.13;;;9.10;64.10;;;;;;6083778;29;20099;-79
2022/11/27 02:21:11;;;;;;;11.38;6.28;;;9.10;64.30;;;;;;6095343;28;20047;-80
2022/11/27 02:24:32;;;;;;;11.63;4.70;;;9.00;64.30;;;;;;6037853;29;20477;-79
2022/11/27 02:27:57;;;;;;;12.60;5.18;;;9.10;64.40;;;;;;6041226;29;20499;-80
2022/11/27 02:31:33;;;;;;;15.95;7.22;;;9.10;64.40;;;;;;6056449;29;20449;-81
2022/11/27 02:34:34;;;;;;;23.15;6.53;;;9.10;64.50;;;;;;6016783;29;20038;-79
2022/11/27 02:37:59;;;;;;;13.07;6.25;;;9.20;64.60;;;;;;6010097;29;20037;-79
2022/11/27 02:41:36;;;;;;;18.42;5.32;;;9.20;64.60;;;;;;6021743;29;20054;-79
2022/11/27 02:44:42;;;;;;;18.70;6.18;;;9.20;64.40;;;;;;5965756;29;20038;-79
2022/11/27 02:47:45;;;;;;;9.88;5.15;;;9.30;64.40;;;;;;5967310;29;20082;-78
2022/11/27 02:50:49;;;;;;;15.35;5.03;;;9.30;64.30;;;;;;5982760;29;20481;-80
2022/11/27 02:54:00;;;;;;;10.27;4.28;;;9.40;64.30;;;;;;5956038;29;20192;-80
2022/11/27 02:57:03;;;;;;;12.98;5.82;;;9.40;64.30;;;;;;5939614;29;20054;-80
2022/11/27 03:00:05;;;;;;;11.30;4.80;;;9.40;64.20;;;;;;5938819;29;20039;-80
2022/11/27 03:03:11;;;;;;;13.93;5.75;;;9.40;64.10;;;;;;5937345;29;20047;-80
2022/11/27 03:06:17;;;;;;;11.73;4.70;;;9.30;64.00;;;;;;5939176;29;20423;-80
2022/11/27 03:09:26;;;;;;;9.25;4.07;;;9.20;64.00;;;;;;5926699;29;20055;-80
2022/11/27 03:12:27;;;;;;;8.88;5.00;;;9.40;64.20;;;;;;6007569;29;20037;-80
2022/11/27 03:15:45;;;;;;;16.45;6.18;;;9.10;64.10;;;;;;5992810;29;20495;-81
2022/11/27 03:19:26;;;;;;;10.55;5.43;;;9.10;64.30;;;;;;6007745;29;20034;-79
2022/11/27 03:22:26;;;;;;;7.55;4.18;;;9.00;64.40;;;;;;6048192;29;20539;-79
2022/11/27 03:25:27;;;;;;;15.50;6.13;;;9.00;64.50;;;;;;6028839;29;20052;-80
2022/11/27 03:28:29;;;;;;;14.77;6.00;;;9.00;64.60;;;;;;6048517;29;20049;-79
2022/11/27 03:31:31;;;;;;;12.73;5.82;;;9.00;64.50;;;;;;6049025;29;20081;-79
2022/11/27 03:34:32;;;;;;;15.30;6.18;;;9.00;64.50;;;;;;6035298;29;20133;-80
2022/11/27 03:37:33;;;;;;;11.13;5.07;;;8.90;64.40;;;;;;6027122;29;20033;-79
2022/11/27 03:41:03;;;;;;;19.40;5.57;;;8.90;64.30;;;;;;6049966;29;20455;-79
2022/11/27 03:44:22;;;;;;;11.13;4.82;;;8.80;64.40;;;;;;6043392;29;20040;-80
2022/11/27 03:47:44;;;;;;;12.82;4.35;;;8.80;64.50;;;;;;6052061;29;20041;-79
2022/11/27 03:50:51;;;;;;;14.63;5.38;;;8.80;64.60;;;;;;6051307;29;20455;-81
2022/11/27 03:54:01;;;;;;;13.07;5.15;;;8.80;64.80;;;;;;6050784;29;20363;-80
2022/11/27 03:57:16;;;;;;;14.82;5.50;;;8.80;64.80;;;;;;6079299;29;20514;-80
2022/11/27 04:00:17;;;;;;;10.32;5.10;;;8.80;64.80;;;;;;6093096;29;20084;-79
2022/11/27 04:03:28;;;;;;;12.50;6.28;;;8.80;64.80;;;;;;6086932;29;20715;-80
2022/11/27 04:06:29;;;;;;;14.95;5.65;;;8.70;64.70;;;;;;6106970;29;20533;-79
2022/11/27 04:09:29;;;;;;;12.18;5.05;;;8.70;64.60;;;;;;6097887;29;20100;-80
2022/11/27 04:12:30;;;;;;;11.65;5.45;;;8.70;64.60;;;;;;6089216;29;20056;-79
2022/11/27 04:15:31;;;;;;;11.98;5.50;;;8.60;64.70;;;;;;6090311;29;20036;-80
2022/11/27 04:18:32;;;;;;;14.00;4.82;;;8.60;64.70;;;;;;6093247;29;20043;-80
2022/11/27 04:21:34;;;;;;;16.27;5.50;;;8.50;64.80;;;;;;6092204;29;20036;-80
2022/11/27 04:24:35;;;;;;;16.17;5.43;;;8.50;65.00;;;;;;6094078;29;20056;-80
2022/11/27 04:27:35;;;;;;;12.15;5.82;;;8.50;65.10;;;;;;6091045;29;20040;-81
2022/11/27 04:30:36;;;;;;;10.15;5.03;;;8.50;65.10;;;;;;6095484;29;20055;-79
2022/11/27 04:33:37;;;;;;;9.77;4.20;;;8.50;65.10;;;;;;6091598;29;20530;-79
2022/11/27 04:36:38;;;;;;;12.82;4.63;;;8.40;65.00;;;;;;6104624;29;20423;-80
2022/11/27 04:39:39;;;;;;;11.02;5.05;;;8.40;65.00;;;;;;6093757;29;20043;-79
2022/11/27 04:42:40;;;;;;;10.85;4.70;;;8.30;64.90;;;;;;6084547;29;20063;-79
2022/11/27 04:45:42;;;;;;;10.88;5.70;;;8.30;65.20;;;;;;6080010;29;20076;-79
2022/11/27 04:48:43;;;;;;;8.18;4.90;;;8.20;65.40;;;;;;6086762;29;20478;-79
2022/11/27 04:51:44;;;;;;;10.68;4.40;;;8.10;65.50;;;;;;6081966;29;20127;-80
2022/11/27 04:54:45;;;;;;;9.88;5.65;;;8.10;65.70;;;;;;6108898;29;20040;-79
2022/11/27 04:57:46;;;;;;;11.10;5.55;;;8.10;65.90;;;;;;6086815;29;20047;-79
2022/11/27 05:00:47;;;;;;;14.60;5.95;;;8.00;66.00;;;;;;6092103;29;20044;-79
2022/11/27 05:03:48;;;;;;;13.80;5.65;;;8.00;66.10;;;;;;6084904;29;20042;-79
2022/11/27 05:06:49;;;;;;;10.20;5.05;;;8.10;66.30;;;;;;6086718;29;20069;-80
2022/11/27 05:09:50;;;;;;;11.40;5.22;;;8.00;66.30;;;;;;6087738;29;20048;-80
2022/11/27 05:12:51;;;;;;;9.00;4.53;;;8.10;66.30;;;;;;6099055;29;20086;-80
2022/11/27 05:15:51;;;;;;;10.95;5.18;;;8.10;66.30;;;;;;6079874;29;20036;-80
2022/11/27 05:18:52;;;;;;;10.60;5.10;;;8.10;66.50;;;;;;6089565;29;20794;-80
2022/11/27 05:21:54;;;;;;;12.35;5.47;;;8.10;66.30;;;;;;6083987;29;20040;-79
2022/11/27 05:24:55;;;;;;;11.52;5.60;;;8.10;66.40;;;;;;6090622;29;20044;-80
2022/11/27 05:27:55;;;;;;;19.75;6.15;;;8.00;66.30;;;;;;6091149;29;20050;-81
2022/11/27 05:30:56;;;;;;;12.55;6.45;;;8.00;66.40;;;;;;6097296;29;20043;-81
2022/11/27 05:33:57;;;;;;;10.18;4.75;;;8.00;66.40;;;;;;6095844;29;20044;-80
2022/11/27 05:36:58;;;;;;;11.82;4.50;;;8.00;66.50;;;;;;6105546;29;20466;-80
2022/11/27 05:39:59;;;;;;;7.47;4.18;;;8.00;66.50;;;;;;6098802;29;20522;-80
2022/11/27 05:43:00;;;;;;;10.05;4.18;;;8.00;66.50;;;;;;6093955;29;20165;-80
2022/11/27 05:46:06;;;;;;;9.00;4.05;;;8.00;66.50;;;;;;6097668;29;20466;-80
2022/11/27 05:49:13;;;;;;;9.15;4.15;;;8.00;66.30;;;;;;6103607;29;20542;-80
2022/11/27 05:52:14;;;;;;;11.30;4.63;;;8.00;66.40;;;;;;6097826;28;20385;-80
2022/11/27 05:55:14;;;;;;;7.75;4.07;;;7.90;66.30;;;;;;6101579;29;20051;-80
2022/11/27 05:58:16;;;;;;;7.70;4.20;;;7.90;66.30;;;;;;6088243;29;20120;-80
2022/11/27 06:01:17;;;;;;;11.45;4.53;;;7.90;66.00;;;;;;6083148;29;20659;-80
2022/11/27 06:04:18;;;;;;;9.38;4.85;;;7.90;66.00;;;;;;6094216;29;20036;-80
2022/11/27 06:07:19;;;;;;;10.27;4.60;;;7.80;65.80;;;;;;6089312;29;20052;-81
2022/11/27 06:10:20;;;;;;;13.75;5.25;;;7.80;65.90;;;;;;6092460;29;20695;-80
2022/11/27 06:13:21;;;;;;;7.90;4.47;;;7.80;65.80;;;;;;6098209;29;20032;-80
2022/11/27 06:16:23;;;;;;;12.43;5.00;;;7.70;65.70;;;;;;6094530;29;20055;-80
2022/11/27 06:19:24;;;;;;;12.10;4.63;;;7.70;65.70;;;;;;6092980;29;20055;-80
2022/11/27 06:22:24;;;;;;;10.88;5.10;;;7.60;65.90;;;;;;6081105;29;20037;-79
2022/11/27 06:25:26;;;;;;;16.30;4.78;;;7.50;65.90;;;;;;6090615;29;20044;-80
2022/11/27 06:28:27;;;;;;;10.38;4.35;;;7.50;66.20;;;;;;6091724;29;20462;-80
2022/11/27 06:31:30;;;;;;;8.88;4.80;;;7.40;66.20;;;;;;6096566;29;20047;-79
2022/11/27 06:34:31;;;;;;;9.68;4.35;;;7.40;66.40;;;;;;6086999;29;20041;-80
2022/11/27 06:37:32;;;;;;;10.43;4.78;;;7.40;66.50;;;;;;6074272;29;20059;-79
2022/11/27 06:40:32;;;;;;;7.93;3.95;;;7.40;66.70;;;;;;6091015;29;20048;-79
2022/11/27 06:43:34;;;;;;;13.63;4.22;;;7.40;66.70;;;;;;6089171;29;20040;-79
2022/11/27 06:46:35;;;;;;;5.50;3.72;;;7.40;66.70;;;;;;6094254;29;20465;-80
2022/11/27 06:49:36;;;;;;;7.75;4.18;;;7.30;66.70;;;;;;6092014;29;20344;-79
2022/11/27 06:52:37;;;;;;;7.82;4.13;;;7.30;66.80;;;;;;6090775;28;20059;-80
2022/11/27 06:55:38;;;;;;;12.20;4.03;;;7.30;66.90;;;;;;6092101;28;20059;-80
2022/11/27 06:58:39;;;;;;;8.90;3.97;;;7.30;67.00;;;;;;6093579;29;20180;-80
2022/11/27 07:01:41;;;;;;;10.18;4.20;;;7.30;67.10;;;;;;6082034;29;20040;-80
2022/11/27 07:04:41;;;;;;;11.05;4.43;;;7.30;67.10;;;;;;6090902;29;20041;-80
2022/11/27 07:07:42;;;;;;;14.23;6.35;;;7.30;67.10;;;;;;6077474;29;20107;-80
2022/11/27 07:10:43;;;;;;;8.88;4.65;;;7.30;67.10;;;;;;6088665;29;20041;-80
2022/11/27 07:13:45;;;;;;;8.95;4.15;;;7.40;67.10;;;;;;6103029;29;20036;-80
2022/11/27 07:16:46;;;;;;;7.68;4.38;;;7.40;67.00;;;;;;6101449;29;20462;-79
2022/11/27 07:19:48;;;;;;;9.07;4.28;;;7.40;67.00;;;;;;6099086;29;20034;-80
2022/11/27 07:22:49;;;;;;;7.07;3.75;;;7.50;67.00;;;;;;6095214;29;20047;-80
2022/11/27 07:25:50;;;;;;;9.30;3.85;;;7.60;66.90;;;;;;6095645;29;20055;-80
2022/11/27 07:28:52;;;;;;;8.75;3.70;;;7.60;66.80;;;;;;6093459;29;20083;-79
2022/11/27 07:31:53;;;;;;;9.55;3.45;;;7.70;66.80;;;;;;6088759;29;20040;-80
2022/11/27 07:34:54;;;;;;;9.13;4.07;;;7.70;66.50;;;;;;6085177;28;20040;-79
2022/11/27 07:37:54;;;;;;;4.22;3.05;;;7.80;66.40;;;;;;6093199;29;20048;-80
2022/11/27 07:41:00;;;;;;;8.43;4.22;;;7.80;66.40;;;;;;6079821;29;20032;-80
2022/11/27 07:44:01;;;;;;;6.93;3.97;;;7.80;66.20;;;;;;6107104;29;20032;-80
2022/11/27 07:47:02;;;;;;;8.88;3.78;;;7.80;66.10;;;;;;6091561;29;20330;-81
2022/11/27 07:50:06;;;;;;;10.45;4.18;;;7.70;65.90;;;;;;6090027;29;20477;-79
2022/11/27 07:53:06;;;;;;;9.13;4.55;;;7.70;65.90;;;;;;6096942;29;20442;-80
2022/11/27 07:56:09;;;;;;;5.88;3.70;;;7.70;65.90;;;;;;6091719;29;20036;-80
2022/11/27 07:59:10;;;;;;;8.93;4.00;;;7.70;65.90;;;;;;6096420;29;20100;-80
2022/11/27 08:02:12;;;;;;;6.68;3.45;;;7.80;65.80;;;;;;6085816;29;20120;-79
2022/11/27 08:05:13;;;;;;;10.23;3.67;;;7.80;65.80;;;;;;6096193;29;20407;-80
2022/11/27 08:08:13;;;;;;;7.97;4.28;;;7.90;65.70;;;;;;6093704;29;20054;-80
2022/11/27 08:11:34;;;;;;;9.18;3.88;;;7.90;65.70;;;;;;6089716;29;20052;-80
2022/11/27 08:14:35;;;;;;;6.45;3.35;;;8.00;65.70;;;;;;6078660;29;20051;-79
2022/11/27 08:17:37;;;;;;;11.63;4.72;;;8.10;65.60;;;;;;6088202;29;20036;-81
2022/11/27 08:20:38;;;;;;;4.97;2.97;;;8.20;65.50;;;;;;6087950;29;20080;-80
2022/11/27 08:23:39;;;;;;;15.30;3.90;;;8.20;65.30;;;;;;6095586;29;20032;-81
2022/11/27 08:26:40;;;;;;;10.45;3.85;;;8.30;65.00;;;;;;6102820;29;20417;-82
2022/11/27 08:29:41;;;;;;;8.25;3.78;;;8.40;65.00;;;;;;6094428;29;20123;-81
2022/11/27 08:32:42;;;;;;;9.48;4.88;;;8.50;64.70;;;;;;6083994;29;20055;-80
2022/11/27 08:35:48;;;;;;;9.50;5.25;;;8.50;64.10;;;;;;6093808;29;20122;-80
2022/11/27 08:38:48;;;;;;;16.38;4.40;;;8.50;63.90;;;;;;6090120;29;20414;-80
2022/11/27 08:41:49;;;;;;;15.82;4.10;;;8.50;63.90;;;;;;6085969;29;20037;-81
2022/11/27 08:44:50;;;;;;;9.75;4.50;;;8.50;63.90;;;;;;6077937;29;20048;-81
2022/11/27 08:47:51;;;;;;;7.22;4.30;;;8.50;64.00;;;;;;6084951;29;20048;-81
2022/11/27 08:50:52;;;;;;;17.25;4.72;;;8.60;63.80;;;;;;6100923;29;20063;-81
2022/11/27 08:53:53;;;;;;;9.88;4.72;;;8.60;63.50;;;;;;6085723;29;20079;-79
2022/11/27 08:56:54;;;;;;;13.00;5.85;;;8.70;63.50;;;;;;6092806;29;20032;-80
2022/11/27 08:59:55;;;;;;;12.45;6.65;;;8.80;63.50;;;;;;6090302;28;20475;-80
2022/11/27 09:02:57;;;;;;;11.63;4.50;;;8.90;63.50;;;;;;6093941;29;20039;-79
2022/11/27 09:05:58;;;;;;;10.32;4.80;;;8.90;63.00;;;;;;6091839;29;20048;-80
2022/11/27 09:09:02;;;;;;;11.20;5.57;;;9.00;63.00;;;;;;6090166;29;20041;-80
2022/11/27 09:12:03;;;;;;;16.73;5.43;;;9.10;63.00;;;;;;6102711;29;20044;-81
2022/11/27 09:15:04;;;;;;;10.80;5.05;;;9.20;62.80;;;;;;6099573;28;20071;-80
2022/11/27 09:18:05;;;;;;;8.88;4.70;;;9.30;62.60;;;;;;6090024;29;20036;-81
2022/11/27 09:21:09;;;;;;;12.55;4.75;;;9.40;62.40;;;;;;6075846;29;20068;-80
2022/11/27 09:24:10;;;;;;;13.20;4.90;;;9.50;61.80;;;;;;6098400;29;20044;-80
2022/11/27 09:27:10;;;;;;;9.82;4.63;;;9.50;61.50;;;;;;6095974;29;20070;-82
2022/11/27 09:30:12;;;;;;;16.52;6.05;;;9.60;61.70;;;;;;6081345;29;20050;-80
2022/11/27 09:33:13;;;;;;;8.90;5.15;;;9.70;61.50;;;;;;6097280;29;20052;-80
2022/11/27 09:36:22;;;;;;;9.52;4.72;;;9.80;61.30;;;;;;6085242;29;20188;-80
2022/11/27 09:39:25;;;;;;;12.43;5.43;;;10.00;61.20;;;;;;6101246;29;20039;-79
2022/11/27 09:42:54;;;;;;;8.10;4.50;;;10.10;61.00;;;;;;6078644;29;20051;-80
2022/11/27 09:46:02;;;;;;;10.35;4.88;;;10.20;60.60;;;;;;6097142;29;20482;-80
2022/11/27 09:49:08;;;;;;;9.10;4.63;;;10.40;60.40;;;;;;6094280;29;20044;-80
2022/11/27 09:52:23;;;;;;;10.77;5.10;;;10.60;60.10;;;;;;6090450;29;20115;-80
2022/11/27 09:55:30;;;;;;;10.48;4.57;;;10.90;59.60;;;;;;6103871;29;20044;-81
2022/11/27 09:58:56;;;;;;;8.98;4.97;;;11.00;59.30;;;;;;6101442;29;20063;-81
2022/11/27 10:01:56;;;;;;;12.90;4.70;;;11.10;59.30;;;;;;6090673;29;20040;-81
2022/11/27 10:04:59;;;;;;;11.68;5.65;;;11.30;59.10;;;;;;6092817;29;20339;-81
2022/11/27 10:08:48;;;;;;;11.45;4.35;;;11.40;58.70;;;;;;6093087;29;20096;-80
2022/11/27 10:12:00;;;;;;;8.80;4.50;;;11.60;58.40;;;;;;6061122;29;20049;-81
2022/11/27 10:15:20;;;;;;;10.35;4.53;;;11.70;57.60;;;;;;6034536;29;20551;-80
2022/11/27 10:18:27;;;;;;;11.80;3.92;;;11.90;57.70;;;;;;6053878;29;20049;-80
2022/11/27 10:22:10;;;;;;;9.80;3.92;;;12.00;56.60;;;;;;6064546;29;20045;-81
2022/11/27 10:25:19;;;;;;;9.38;3.88;;;12.20;56.30;;;;;;6035567;29;20049;-81
2022/11/27 10:28:41;;;;;;;8.65;4.10;;;12.30;55.80;;;;;;6065184;29;20119;-81
2022/11/27 10:31:53;;;;;;;8.50;3.85;;;12.40;55.20;;;;;;6061960;29;20052;-80
2022/11/27 10:35:16;;;;;;;7.95;3.92;;;12.50;55.10;;;;;;6063207;29;20053;-81
2022/11/27 10:38:21;;;;;;;6.82;3.65;;;12.60;55.20;;;;;;6042444;29;20044;-81
2022/11/27 10:41:40;;;;;;;6.90;3.78;;;12.60;55.00;;;;;;6059641;29;20070;-80
2022/11/27 10:44:58;;;;;;;8.45;3.97;;;12.70;54.80;;;;;;6058931;29;20347;-80
2022/11/27 10:47:59;;;;;;;7.27;4.10;;;12.70;54.70;;;;;;6071580;29;20051;-81
2022/11/27 10:51:00;;;;;;;13.98;4.60;;;12.60;54.60;;;;;;6088960;29;20036;-81
2022/11/27 10:54:04;;;;;;;9.60;3.67;;;12.60;54.40;;;;;;6098437;29;20131;-80
2022/11/27 10:57:34;;;;;;;7.35;3.08;;;12.50;54.00;;;;;;6091567;29;20123;-81
2022/11/27 11:00:35;;;;;;;6.97;3.25;;;12.40;53.80;;;;;;6090453;29;20115;-80
2022/11/27 11:03:36;;;;;;;10.95;2.88;;;12.30;54.10;;;;;;6082641;29;20059;-81
2022/11/27 11:06:41;;;;;;;6.80;3.28;;;12.30;54.30;;;;;;6088577;29;20044;-80
2022/11/27 11:09:47;;;;;;;7.03;2.65;;;12.50;54.40;;;;;;6083835;29;20087;-80
2022/11/27 11:12:48;;;;;;;4.65;2.90;;;12.50;54.10;;;;;;6086650;29;20124;-79
2022/11/27 11:16:03;;;;;;;8.80;3.63;;;12.50;53.80;;;;;;6078631;29;20409;-80
2022/11/27 11:19:07;;;;;;;5.85;3.45;;;12.60;53.80;;;;;;6082906;29;20462;-80
2022/11/27 11:22:14;;;;;;;5.82;2.80;;;12.60;53.40;;;;;;6090385;29;20047;-78
2022/11/27 11:25:17;;;;;;;11.65;3.60;;;12.60;53.80;;;;;;6086706;29;20056;-79
2022/11/27 11:28:19;;;;;;;9.48;3.30;;;12.70;53.00;;;;;;6094950;29;20051;-78
2022/11/27 11:31:30;;;;;;;12.32;4.18;;;12.90;52.90;;;;;;6088151;29;20377;-77
2022/11/27 11:34:32;;;;;;;8.32;3.53;;;13.30;52.70;;;;;;6101206;29;20040;-80
2022/11/27 11:37:45;;;;;;;6.00;3.53;;;13.80;51.70;;;;;;6089362;29;20036;-80
2022/11/27 11:40:59;;;;;;;8.27;2.85;;;14.10;50.20;;;;;;6084991;29;20067;-80
2022/11/27 11:44:01;;;;;;;8.98;2.80;;;14.10;49.90;;;;;;6080486;29;20033;-80
2022/11/27 11:47:02;;;;;;;7.97;2.83;;;14.10;49.80;;;;;;6087512;29;20044;-80
2022/11/27 11:50:03;;;;;;;7.53;2.70;;;14.00;49.40;;;;;;6093289;29;20051;-81
2022/11/27 11:53:16;;;;;;;7.50;3.67;;;13.90;49.20;;;;;;6108301;29;20044;-80
2022/11/27 11:56:20;;;;;;;8.88;3.65;;;13.90;49.60;;;;;;6085643;29;20036;-80
2022/11/27 11:59:38;;;;;;;8.73;3.35;;;13.80;49.60;;;;;;6087982;29;20048;-80
2022/11/27 12:02:57;;;;;;;8.55;3.88;;;13.80;49.30;;;;;;6082664;29;20210;-80
2022/11/27 12:06:22;;;;;;;10.73;4.03;;;13.60;49.60;;;;;;6086784;29;20064;-80
2022/11/27 12:09:42;;;;;;;5.88;3.10;;;13.60;49.80;;;;;;6083072;29;20126;-80
2022/11/27 12:12:58;;;;;;;6.20;3.15;;;13.60;49.80;;;;;;6081813;28;20045;-80
2022/11/27 12:16:23;;;;;;;8.85;3.35;;;13.60;49.40;;;;;;6074753;29;20362;-81
2022/11/27 12:19:42;;;;;;;9.80;3.25;;;13.60;48.80;;;;;;6094205;29;20036;-80
2022/11/27 12:23:24;;;;;;;8.32;3.05;;;13.50;48.70;;;;;;6088764;29;20473;-81
2022/11/27 12:26:31;;;;;;;7.35;3.70;;;13.60;48.90;;;;;;6043990;29;20148;-81
2022/11/27 12:30:01;;;;;;;5.93;2.85;;;13.60;48.80;;;;;;6047267;29;20068;-81
2022/11/27 12:33:34;;;;;;;5.53;2.15;;;13.80;48.70;;;;;;6044010;29;20064;-80
2022/11/27 12:37:06;;;;;;;5.55;1.67;;;14.00;48.50;;;;;;6040608;29;20037;-80
2022/11/27 12:40:39;;;;;;;6.10;2.42;;;14.10;47.90;;;;;;6045644;29;20109;-79
2022/11/27 12:43:55;;;;;;;6.75;3.50;;;14.10;47.20;;;;;;5977092;29;20360;-80
2022/11/27 12:47:03;;;;;;;3.90;2.10;;;14.10;46.80;;;;;;5979878;29;20076;-81
2022/11/27 12:50:17;;;;;;;5.38;2.03;;;14.10;46.80;;;;;;5965298;29;20042;-82
2022/11/27 12:53:35;;;;;;;7.97;2.88;;;14.10;46.80;;;;;;5980390;29;20040;-80
2022/11/27 12:56:42;;;;;;;5.68;2.50;;;14.10;46.50;;;;;;5980766;29;20052;-80
2022/11/27 12:59:58;;;;;;;5.03;3.47;;;14.00;46.50;;;;;;5979008;29;20042;-81
2022/11/27 13:03:24;;;;;;;7.35;3.33;;;14.00;47.00;;;;;;5979137;29;20049;-81
2022/11/27 13:06:30;;;;;;;6.75;3.15;;;14.00;47.30;;;;;;6013113;29;20455;-80
2022/11/27 13:09:38;;;;;;;5.78;2.78;;;14.00;47.20;;;;;;6006300;29;20049;-81
2022/11/27 13:13:01;;;;;;;8.77;3.95;;;13.90;47.40;;;;;;6013800;29;20037;-80
2022/11/27 13:16:08;;;;;;;7.72;3.33;;;13.90;47.50;;;;;;6005227;29;20065;-81
2022/11/27 13:19:28;;;;;;;8.77;3.33;;;13.90;47.50;;;;;;6019449;29;20055;-80
2022/11/27 13:22:34;;;;;;;4.03;2.40;;;13.90;47.20;;;;;;6099376;29;20048;-80
2022/11/27 13:25:43;;;;;;;5.78;2.58;;;13.90;46.80;;;;;;6089607;29;20040;-81
2022/11/27 13:28:50;;;;;;;2.58;1.65;;;13.80;46.50;;;;;;6089939;29;20044;-81
2022/11/27 13:31:57;;;;;;;5.60;2.28;;;13.80;46.40;;;;;;6105087;29;20108;-80
2022/11/27 13:35:02;;;;;;;5.05;2.80;;;13.80;46.40;;;;;;6098144;29;20447;-80
2022/11/27 13:38:18;;;;;;;5.63;2.00;;;13.90;46.60;;;;;;6091418;29;20052;-79
2022/11/27 13:41:22;;;;;;;7.90;2.95;;;13.80;46.30;;;;;;6091333;29;20120;-81
2022/11/27 13:44:26;;;;;;;6.38;2.80;;;13.80;46.50;;;;;;6091021;29;20163;-80
2022/11/27 13:47:34;;;;;;;6.32;3.42;;;13.80;46.80;;;;;;6103213;29;20037;-80
2022/11/27 13:50:43;;;;;;;4.93;2.97;;;13.80;46.70;;;;;;6085578;29;20048;-80
2022/11/27 13:53:44;;;;;;;7.43;2.55;;;13.70;46.80;;;;;;6104389;29;20052;-81
2022/11/27 13:56:45;;;;;;;6.55;2.92;;;13.70;47.00;;;;;;6093850;29;20056;-80
2022/11/27 13:59:59;;;;;;;8.18;3.15;;;13.70;47.20;;;;;;6098026;29;20029;-81
2022/11/27 14:03:01;;;;;;;11.43;4.30;;;13.60;47.60;;;;;;6074157;29;20404;-80
2022/11/27 14:06:21;;;;;;;15.25;6.03;;;13.60;47.90;;;;;;6083143;28;20039;-81
2022/11/27 14:09:33;;;;;;;17.40;5.65;;;13.60;48.30;;;;;;6068031;29;20553;-81
2022/11/27 14:12:35;;;;;;;9.70;4.65;;;13.70;48.50;;;;;;6095366;29;20091;-82
2022/11/27 14:15:37;;;;;;;10.85;3.97;;;13.70;48.60;;;;;;6097043;29;20116;-80
2022/11/27 14:18:38;;;;;;;10.52;4.00;;;13.70;48.80;;;;;;6096185;29;20033;-80
2022/11/27 14:21:42;;;;;;;10.50;4.30;;;13.70;48.90;;;;;;6096003;29;20055;-80
2022/11/27 14:24:44;;;;;;;9.00;3.80;;;13.70;49.10;;;;;;6094322;29;20427;-81
2022/11/27 14:27:47;;;;;;;8.98;4.10;;;13.70;49.20;;;;;;6109047;29;20454;-80
2022/11/27 14:30:55;;;;;;;7.22;3.88;;;13.70;49.40;;;;;;6087572;29;20156;-80
2022/11/27 14:33:56;;;;;;;;;;;13.70;49.40;;;;;;6084959;29;20040;-80
2022/11/27 14:36:59;;;;;;;7.70;4.18;;;13.80;49.60;;;;;;6085996;29;20390;-79
2022/11/27 14:40:11;;;;;;;9.30;3.78;;;13.70;49.60;;;;;;6107286;29;20144;-81
2022/11/27 14:43:17;;;;;;;7.55;3.85;;;13.70;49.70;;;;;;6090810;29;20458;-81
2022/11/27 14:46:20;;;;;;;6.72;3.45;;;13.70;49.90;;;;;;6084147;29;20053;-81
2022/11/27 14:49:25;;;;;;;9.60;3.60;;;13.60;49.80;;;;;;6093196;29;20045;-80
2022/11/27 14:52:26;;;;;;;6.35;3.67;;;13.60;49.80;;;;;;6108611;29;20094;-81
2022/11/27 14:55:28;;;;;;;10.48;3.95;;;13.60;49.90;;;;;;6093657;29;20032;-82
2022/11/27 14:58:29;;;;;;;11.90;5.47;;;13.50;49.90;;;;;;6097531;29;20381;-80
2022/11/27 15:01:33;;;;;;;6.75;3.78;;;13.50;50.00;;;;;;6099978;29;20040;-81
2022/11/27 15:04:38;;;;;;;10.40;4.40;;;13.40;50.10;;;;;;6106515;29;20048;-81
2022/11/27 15:07:41;;;;;;;9.27;4.43;;;13.40;50.70;;;;;;6103160;29;20032;-81
2022/11/27 15:10:42;;;;;;;10.85;4.00;;;13.40;50.40;;;;;;6097652;29;20056;-79
2022/11/27 15:13:48;;;;;;;7.63;3.90;;;13.30;50.40;;;;;;6089536;29;20042;-80
2022/11/27 15:16:51;;;;;;;9.85;3.97;;;13.30;50.50;;;;;;6094618;29;20478;-80
2022/11/27 15:19:53;;;;;;;10.43;4.72;;;13.30;51.20;;;;;;6096626;29;20037;-80
2022/11/27 15:22:56;;;;;;;8.35;3.47;;;13.20;50.70;;;;;;6099855;29;20108;-81
2022/11/27 15:26:09;;;;;;;14.93;5.05;;;13.20;50.90;;;;;;6106736;29;20509;-79
2022/11/27 15:29:28;;;;;;;10.70;4.72;;;13.10;51.00;;;;;;6082073;29;20068;-80
2022/11/27 15:32:50;;;;;;;10.88;4.10;;;13.10;51.10;;;;;;6101692;29;20474;-81
2022/11/27 15:35:51;;;;;;;10.43;4.13;;;13.10;51.30;;;;;;6095933;29;20344;-80
2022/11/27 15:39:04;;;;;;;7.25;3.42;;;13.00;51.30;;;;;;6088233;29;20047;-79
2022/11/27 15:42:08;;;;;;;7.22;3.90;;;13.00;51.50;;;;;;6078628;29;20267;-80
2022/11/27 15:45:09;;;;;;;12.07;4.18;;;12.90;51.50;;;;;;6084391;29;20048;-79
2022/11/27 15:48:15;;;;;;;9.48;4.03;;;12.90;51.70;;;;;;6086957;29;20048;-81
2022/11/27 15:51:16;;;;;;;14.40;4.50;;;12.90;51.80;;;;;;6101705;29;20060;-81
2022/11/27 15:54:18;;;;;;;11.90;4.78;;;12.80;51.90;;;;;;6095925;29;20050;-80
2022/11/27 15:57:19;;;;;;;11.40;5.07;;;12.80;52.20;;;;;;6092842;29;20032;-81
2022/11/27 16:00:20;;;;;;;16.60;5.00;;;12.80;52.20;;;;;;6106379;29;20060;-81
2022/11/27 16:03:23;;;;;;;16.00;6.22;;;12.70;52.20;;;;;;6104698;29;20036;-80
2022/11/27 16:06:24;;;;;;;10.32;4.82;;;12.70;52.30;;;;;;6093422;29;20462;-80
2022/11/27 16:09:26;;;;;;;15.30;4.82;;;12.70;52.50;;;;;;6079891;29;20122;-81
2022/11/27 16:12:26;;;;;;;8.05;3.78;;;12.60;52.40;;;;;;6086370;29;20036;-80